Time;durP1;ratioP1;P1;durP2;ratioP2;P2;SDS_P1;SDS_P2;PMS_P1;PMS_P2;Temp;Humidity;BMP_temperature;BMP_pressure;BME280_temperature;BME280_humidity;BME280_pressure;Samples;Min_cycle;Max_cycle;Signal;HPM_P1;HPM_P2
2022/12/17 13:06:39;;;;;;;;;;;;;;;-4.22;79.14;100737.58;99518;1288;96386;-80
2022/12/17 13:09:06;;;;;;;;;;;;;;;-4.20;79.20;100739.50;98937;1292;1002730;-79
2022/12/17 13:11:36;;;;;;;;;;;;;;;-4.19;79.32;100747.33;100737;1294;124988;-81
2022/12/17 13:14:06;;;;;;;;;;;;;;;-4.19;79.13;100750.59;99684;1295;96374;-79
2022/12/17 13:16:37;;;;;;;;;;;;;;;-4.17;79.34;100750.15;99609;1291;124308;-79
2022/12/17 13:19:04;;;;;;;;;;;;;;;-4.16;79.24;100746.94;99581;1288;96493;-79
2022/12/17 13:21:30;;;;;;;;;;;;;;;-4.14;78.94;100747.01;99569;1293;126108;-79
2022/12/17 13:23:56;;;;;;;;;;;;;;;-4.14;79.05;100747.52;99725;1291;107674;-78
2022/12/17 13:26:23;;;;;;;;;;;;;;;-4.16;79.19;100750.85;99684;1292;96666;-80
2022/12/17 13:28:58;;;;;;;;;;;;;;;-4.17;79.08;100749.63;99710;1286;126206;-78
2022/12/17 13:31:26;;;;;;;;;;;;;;;-4.18;78.85;100758.41;99670;1294;96630;-79
2022/12/17 13:33:56;;;;;;;;;;;;;;;-4.20;78.68;100762.42;99595;1291;124444;-79
2022/12/17 13:36:26;;;;;;;;;;;;;;;-4.24;78.85;100762.48;99680;1287;107375;-79
2022/12/17 13:38:56;;;;;;;;;;;;;;;-4.27;78.72;100760.52;99675;1294;96790;-78
2022/12/17 13:41:26;;;;;;;;;;;;;;;-4.28;78.87;100763.71;99538;1291;124546;-77
2022/12/17 13:43:53;;;;;;;;;;;;;;;-4.28;78.85;100764.73;99937;1287;96447;-77
2022/12/17 13:46:20;;;;;;;;;;;;;;;-4.28;78.88;100763.71;99921;1290;124256;-77
2022/12/17 13:48:51;;;;;;;;;;;;;;;-4.27;78.97;100762.55;99714;1282;107661;-77
2022/12/17 13:51:19;;;;;;;;;;;;;;;-4.27;78.69;100770.03;99754;1284;125163;-75
2022/12/17 13:53:51;;;;;;;;;;;;;;;-4.28;78.47;100771.69;99798;1282;106594;-78
2022/12/17 13:56:21;;;;;;;;;;;;;;;-4.31;78.71;100773.98;99143;1288;1016112;-76
2022/12/17 13:58:50;;;;;;;;;;;;;;;-4.32;78.44;100771.67;99795;1281;124421;-78
2022/12/17 14:01:16;;;;;;;;;;;;;;;-4.35;78.62;100771.09;99922;1291;106771;-76
2022/12/17 14:03:43;;;;;;;;;;;;;;;-4.36;78.37;100778.15;99644;1289;124642;-82
2022/12/17 14:06:32;;;;;;;;;;;;;;;-4.39;78.69;100785.70;99775;1283;106816;-75
2022/12/17 14:08:58;;;;;;;;;;;;;;;-4.40;78.62;100785.84;99992;1282;97148;-77
2022/12/17 14:14:04;;;;;;;;;;;;;;;-4.41;79.12;100792.44;99526;1288;108740;-76
2022/12/17 14:16:30;;;;;;;;;;;;;;;-4.45;78.39;100794.48;99364;1288;124495;-72
2022/12/17 14:18:56;;;;;;;;;;;;;;;-4.50;78.40;100794.62;99507;1293;108028;-73
2022/12/17 14:21:22;;;;;;;;;;;;;;;-4.50;78.83;100801.40;99351;1289;124529;-75
2022/12/17 14:23:49;;;;;;;;;;;;;;;-4.53;78.51;100804.35;99525;1289;109457;-80
2022/12/17 14:26:14;;;;;;;;;;;;;;;-4.56;78.35;100810.88;99514;1296;108810;-73
2022/12/17 14:28:46;;;;;;;;;;;;;;;-4.63;78.44;100817.57;99566;1293;123794;-73
2022/12/17 14:31:18;;;;;;;;;;;;;;;-4.64;78.79;100826.70;99672;1302;106827;-75
2022/12/17 14:34:06;;;;;;;;;;;;;;;-4.65;78.67;100832.60;99476;1296;124079;-79
2022/12/17 14:36:32;;;;;;;;;;;;;;;-4.68;78.63;100843.30;99547;1296;110329;-73
2022/12/17 14:38:59;;;;;;;;;;;;;;;-4.68;78.85;100841.09;99542;1290;107225;-78
2022/12/17 14:44:16;;;;;;;;;;;;;;;-4.81;78.67;100842.64;99569;1297;106799;-76
2022/12/17 14:46:46;;;;;;;;;;;;;;;-4.83;79.00;100844.26;99463;1294;123778;-75
2022/12/17 14:49:17;;;;;;;;;;;;;;;-4.88;78.95;100847.96;99499;1295;109695;-77
2022/12/17 14:51:42;;;;;;;;;;;;;;;-4.96;78.76;100848.36;98791;1290;1126026;-75
2022/12/17 14:54:19;;;;;;;;;;;;;;;-5.01;79.04;100851.73;99906;1295;96385;-77
2022/12/17 14:56:45;;;;;;;;;;;;;;;-5.04;79.10;100855.80;100447;1289;106967;-69
2022/12/17 14:59:24;;;;;;;;;;;;;;;-5.07;78.99;100856.04;99848;1293;123891;-67
2022/12/17 15:01:49;;;;;;;;;;;;;;;-5.09;79.23;100859.48;99905;1290;109087;-70
2022/12/17 15:04:21;;;;;;;;;;;;;;;-5.12;79.30;100854.83;99928;1283;124592;-70
2022/12/17 15:06:46;;;;;;;;;;;;;;;-5.15;79.12;100856.38;100027;1289;96562;-73
2022/12/17 15:09:13;;;;;;;;;;;;;;;-5.19;79.17;100861.49;100035;1294;107218;-72
2022/12/17 15:11:38;;;;;;;;;;;;;;;-5.20;79.43;100867.91;100118;1283;96470;-69
2022/12/17 15:14:04;;;;;;;;;;;;;;;-5.20;79.26;100869.27;99899;1291;109539;-74
2022/12/17 15:16:30;;;;;;;;;;;;;;;-5.19;79.34;100873.20;99783;1289;124769;-72
2022/12/17 15:18:56;;;;;;;;;;;;;;;-5.17;79.30;100881.42;99967;1285;96580;-68
2022/12/17 15:21:21;;;;;;;;;;;;;;;-5.15;79.60;100879.26;99965;1289;124635;-66
2022/12/17 15:23:47;;;;;;;;;;;;;;;-5.15;79.10;100883.67;100025;1296;96518;-74
2022/12/17 15:26:14;;;;;;;;;;;;;;;-5.15;79.32;100885.19;99977;1284;112261;-69
2022/12/17 15:28:39;;;;;;;;;;;;;;;-5.14;79.38;100892.72;100254;1289;125114;-71
2022/12/17 15:31:06;;;;;;;;;;;;;;;-5.12;79.19;100894.81;99942;1288;96595;-72
2022/12/17 15:33:31;;;;;;;;;;;;;;;-5.11;79.36;100895.36;99842;1289;126048;-71
2022/12/17 15:35:57;;;;;;;;;;;;;;;-5.11;79.27;100896.20;99976;1296;96474;-72
2022/12/17 15:38:23;;;;;;;;;;;;;;;-5.09;79.30;100897.29;99994;1289;111538;-77
2022/12/17 15:40:48;;;;;;;;;;;;;;;-5.08;78.94;100901.42;99813;1289;126262;-79
2022/12/17 15:43:14;;;;;;;;;;;;;;;-5.06;79.29;100897.27;99993;1286;96465;-70
2022/12/17 15:45:41;;;;;;;;;;;;;;;-5.02;79.16;100897.27;99943;1287;124201;-75
2022/12/17 15:48:06;;;;;;;;;;;;;;;-5.01;78.92;100902.25;99912;1291;96482;-71
2022/12/17 15:50:31;;;;;;;;;;;;;;;-4.97;79.21;100908.52;99905;1290;110594;-75
2022/12/17 15:52:57;;;;;;;;;;;;;;;-4.91;78.84;100915.02;99868;1288;124610;-75
2022/12/17 15:55:23;;;;;;;;;;;;;;;-4.86;78.77;100917.06;100046;1290;96551;-73
2022/12/17 15:57:48;;;;;;;;;;;;;;;-4.83;78.75;100918.24;99879;1289;125197;-75
2022/12/17 16:00:15;;;;;;;;;;;;;;;-4.82;78.50;100915.20;100012;1291;96473;-82
2022/12/17 16:02:40;;;;;;;;;;;;;;;-4.82;78.37;100919.45;99916;1283;110295;-80
2022/12/17 16:05:07;;;;;;;;;;;;;;;-4.87;78.39;100928.07;99803;1283;123509;-87
2022/12/17 16:07:33;;;;;;;;;;;;;;;-4.92;78.24;100937.86;99937;1290;96468;-73
2022/12/17 16:09:58;;;;;;;;;;;;;;;-5.00;78.32;100938.25;99859;1289;123570;-75
2022/12/17 16:12:29;;;;;;;;;;;;;;;-5.07;78.34;100936.04;99985;1287;96502;-73
2022/12/17 16:14:54;;;;;;;;;;;;;;;-5.14;78.49;100930.35;99973;1291;108847;-75
2022/12/17 16:17:20;;;;;;;;;;;;;;;-5.19;78.41;100934.20;99821;1290;124450;-74
2022/12/17 16:19:45;;;;;;;;;;;;;;;-5.25;78.43;100935.48;99834;1289;96714;-73
2022/12/17 16:22:11;;;;;;;;;;;;;;;-5.29;78.80;100935.83;99795;1281;123430;-75
2022/12/17 16:24:37;;;;;;;;;;;;;;;-5.33;78.47;100940.06;99890;1290;96470;-76
2022/12/17 16:27:02;;;;;;;;;;;;;;;-5.37;78.55;100942.94;99978;1288;111033;-74
2022/12/17 16:29:29;;;;;;;;;;;;;;;-5.42;78.64;100944.40;101321;1298;123635;-74
2022/12/17 16:31:55;;;;;;;;;;;;;;;-5.49;78.26;100942.76;101493;1283;94769;-75
2022/12/17 16:34:20;;;;;;;;;;;;;;;-5.54;78.78;100941.38;101377;1295;124199;-75
2022/12/17 16:36:46;;;;;;;;;;;;;;;-5.57;78.48;100948.00;100777;1290;96472;-74
2022/12/17 16:39:14;;;;;;;;;;;;;;;-5.62;78.52;100953.85;99993;1290;109410;-74
2022/12/17 16:41:40;;;;;;;;;;;;;;;-5.68;78.44;100953.10;99995;1291;108568;-78
2022/12/17 16:44:06;;;;;;;;;;;;;;;-5.73;78.21;100958.98;99981;1290;96385;-84
2022/12/17 16:46:33;;;;;;;;;;;;;;;-5.76;78.28;100970.01;99925;1291;123532;-76
2022/12/17 16:48:59;;;;;;;;;;;;;;;-5.79;78.50;100975.29;99898;1291;96525;-77
2022/12/17 16:51:26;;;;;;;;;;;;;;;-5.86;78.39;100977.20;99833;1290;124054;-75
2022/12/17 16:53:54;;;;;;;;;;;;;;;-5.91;78.41;100982.27;99916;1289;107063;-80
2022/12/17 16:56:20;;;;;;;;;;;;;;;-5.91;78.60;100982.39;100003;1288;96479;-77
2022/12/17 16:58:46;;;;;;;;;;;;;;;-5.91;78.79;100986.48;99809;1290;124860;-75
2022/12/17 17:01:12;;;;;;;;;;;;;;;-5.90;78.65;100985.15;99943;1288;96335;-71
2022/12/17 17:03:40;;;;;;;;;;;;;;;-5.88;78.69;100986.92;99785;1288;124781;-73
2022/12/17 17:06:06;;;;;;;;;;;;;;;-5.85;78.55;100990.94;99906;1291;107957;-79
2022/12/17 17:08:32;;;;;;;;;;;;;;;-5.83;78.53;100996.80;99893;1291;96365;-73
2022/12/17 17:10:57;;;;;;;;;;;;;;;-5.80;78.71;100998.30;99782;1283;125025;-78
2022/12/17 17:13:23;;;;;;;;;;;;;;;-5.78;78.88;100997.73;99881;1288;96534;-79
2022/12/17 17:15:48;;;;;;;;;;;;;;;-5.76;78.70;101008.78;99798;1291;124247;-77
2022/12/17 17:18:14;;;;;;;;;;;;;;;-5.78;78.56;101016.83;99817;1287;107458;-84
2022/12/17 17:20:39;;;;;;;;;;;;;;;-5.76;78.50;101020.16;99907;1284;96575;-77
2022/12/17 17:23:04;;;;;;;;;;;;;;;-5.75;78.71;101026.29;99237;1283;1003807;-84
2022/12/17 17:25:30;;;;;;;;;;;;;;;-5.76;78.47;101030.48;99933;1292;96370;-79
2022/12/17 17:28:15;;;;;;;;;;;;;;;-5.79;78.21;101030.48;99852;1290;123977;-80
2022/12/17 17:30:41;;;;;;;;;;;;;;;-5.85;78.43;101027.86;99937;1283;107358;-73
2022/12/17 17:33:06;;;;;;;;;;;;;;;-5.88;78.28;101028.09;99941;1291;96488;-76
2022/12/17 17:35:32;;;;;;;;;;;;;;;-5.91;78.25;101024.23;99949;1291;123949;-70
2022/12/17 17:37:57;;;;;;;;;;;;;;;-5.94;78.24;101026.63;100028;1288;96558;-72
2022/12/17 17:40:23;;;;;;;;;;;;;;;-5.96;78.33;101025.86;99904;1281;124663;-71
2022/12/17 17:42:48;;;;;;;;;;;;;;;-5.97;78.27;101023.27;99914;1290;107256;-75
2022/12/17 17:45:17;;;;;;;;;;;;;;;-6.01;78.37;101027.66;99943;1289;124545;-80
2022/12/17 17:47:42;;;;;;;;;;;;;;;-6.02;78.49;101036.08;99974;1290;107811;-75
2022/12/17 17:50:09;;;;;;;;;;;;;;;-6.01;78.47;101039.86;99887;1291;96430;-83
2022/12/17 17:52:34;;;;;;;;;;;;;;;-6.01;78.65;101041.55;99847;1288;124777;-76
2022/12/17 17:55:00;;;;;;;;;;;;;;;-5.99;78.55;101039.27;99953;1283;107696;-74
2022/12/17 17:57:25;;;;;;;;;;;;;;;-5.98;78.60;101033.89;99888;1289;124749;-77
2022/12/17 17:59:50;;;;;;;;;;;;;;;-5.97;78.42;101035.98;99906;1291;107404;-73
2022/12/17 18:02:16;;;;;;;;;;;;;;;-5.97;78.73;101046.64;99931;1284;96528;-76
2022/12/17 18:04:42;;;;;;;;;;;;;;;-5.97;78.85;101052.23;99857;1282;124635;-77
2022/12/17 18:07:07;;;;;;;;;;;;;;;-5.96;78.84;101051.08;99239;1289;1003252;-75
2022/12/17 18:09:50;;;;;;;;;;;;;;;-5.96;78.74;101057.02;99205;1282;1003697;-73
2022/12/17 18:14:59;;;;;;;;;;;;;;;-5.95;78.94;101059.60;99943;1291;96500;-75
2022/12/17 18:17:43;;;;;;;;;;;;;;;-5.95;78.80;101061.13;100028;1289;108854;-81
2022/12/17 18:20:10;;;;;;;;;;;;;;;-5.97;78.99;101070.02;99200;1290;1003107;-73
2022/12/17 18:22:35;;;;;;;;;;;;;;;-5.98;78.92;101076.39;101060;1293;124985;-77
2022/12/17 18:25:01;;;;;;;;;;;;;;;-5.98;79.15;101080.42;99878;1291;108030;-80
2022/12/17 18:27:26;;;;;;;;;;;;;;;-5.95;79.24;101081.08;99870;1296;124602;-72
2022/12/17 18:29:52;;;;;;;;;;;;;;;-5.93;78.99;101087.29;99794;1289;111044;-79
2022/12/17 18:32:17;;;;;;;;;;;;;;;-5.93;79.09;101093.02;99890;1289;108826;-70
2022/12/17 18:34:43;;;;;;;;;;;;;;;-5.94;79.12;101094.36;100225;1284;126249;-77
2022/12/17 18:37:08;;;;;;;;;;;;;;;-5.92;79.26;101095.50;99983;1291;106619;-78
2022/12/17 18:39:35;;;;;;;;;;;;;;;-5.89;79.23;101097.29;99792;1288;124786;-76
2022/12/17 18:44:43;;;;;;;;;;;;;;;-5.81;79.62;101107.46;99914;1291;108195;-74
2022/12/17 18:47:10;;;;;;;;;;;;;;;-5.76;79.34;101113.79;99965;1286;125979;-83
2022/12/17 18:49:35;;;;;;;;;;;;;;;-5.71;79.72;101112.84;99885;1296;106733;-65
2022/12/17 18:52:01;;;;;;;;;;;;;;;-5.69;79.63;101111.77;99864;1290;125597;-77
2022/12/17 18:54:28;;;;;;;;;;;;;;;-5.68;79.71;101110.45;99937;1280;108898;-82
2022/12/17 18:56:56;;;;;;;;;;;;;;;-5.67;79.50;101113.89;99934;1296;106845;-81
2022/12/17 18:59:27;;;;;;;;;;;;;;;-5.67;79.46;101125.44;99853;1290;125968;-81
2022/12/17 19:01:55;;;;;;;;;;;;;;;-5.63;79.68;101127.81;99878;1289;109689;-84
2022/12/17 19:04:21;;;;;;;;;;;;;;;-5.56;79.66;101132.90;99904;1288;124367;-75
2022/12/17 19:06:50;;;;;;;;;;;;;;;-5.51;79.78;101129.22;99325;1296;1003073;-81
2022/12/17 19:09:17;;;;;;;;;;;;;;;-5.45;79.57;101132.02;99999;1289;107593;-84
2022/12/17 19:11:44;;;;;;;;;;;;;;;-5.39;79.70;101130.29;99992;1289;96459;-84
2022/12/17 19:14:09;;;;;;;;;;;;;;;-5.34;79.72;101132.52;99221;1289;1003613;-73
2022/12/17 19:16:35;;;;;;;;;;;;;;;-5.29;79.64;101128.69;99976;1289;126241;-75
2022/12/17 19:19:02;;;;;;;;;;;;;;;-5.25;79.57;101128.54;100065;1289;111100;-80
2022/12/17 19:21:27;;;;;;;;;;;;;;;-5.22;79.53;101137.17;99837;1298;124696;-82
2022/12/17 19:23:57;;;;;;;;;;;;;;;-5.19;79.40;101141.03;99947;1290;96462;-78
2022/12/17 19:26:22;;;;;;;;;;;;;;;-5.17;79.51;101141.64;100030;1289;108758;-74
2022/12/17 19:28:48;;;;;;;;;;;;;;;-5.14;79.33;101141.94;99852;1291;125385;-75
2022/12/17 19:31:15;;;;;;;;;;;;;;;-5.11;79.29;101147.66;99993;1290;111815;-73
2022/12/17 19:33:41;;;;;;;;;;;;;;;-5.10;79.11;101150.94;99802;1293;125241;-80
2022/12/17 19:36:11;;;;;;;;;;;;;;;-5.09;79.32;101152.35;99914;1291;97026;-77
2022/12/17 19:38:36;;;;;;;;;;;;;;;-5.06;79.26;101154.34;99969;1291;107307;-75
2022/12/17 19:41:07;;;;;;;;;;;;;;;-5.04;79.29;101153.57;99927;1296;124329;-72
2022/12/17 19:43:32;;;;;;;;;;;;;;;-5.02;79.30;101156.21;100009;1296;110244;-72
2022/12/17 19:46:03;;;;;;;;;;;;;;;-4.99;79.39;101159.77;99871;1294;124994;-77
2022/12/17 19:48:29;;;;;;;;;;;;;;;-4.96;79.21;101166.52;100123;1282;96471;-71
2022/12/17 19:50:58;;;;;;;;;;;;;;;-4.92;79.30;101167.69;99961;1289;108864;-71
2022/12/17 19:53:26;;;;;;;;;;;;;;;-4.91;79.19;101171.48;99792;1290;124402;-74
2022/12/17 19:55:51;;;;;;;;;;;;;;;-4.91;79.14;101177.25;99872;1293;109332;-82
2022/12/17 19:58:17;;;;;;;;;;;;;;;-4.89;79.00;101176.48;99861;1297;124372;-74
2022/12/17 20:00:43;;;;;;;;;;;;;;;-4.87;79.12;101179.63;99829;1293;96481;-77
2022/12/17 20:03:08;;;;;;;;;;;;;;;-4.85;79.16;101180.58;99936;1290;106576;-80
2022/12/17 20:05:34;;;;;;;;;;;;;;;-4.80;79.08;101184.16;99898;1292;124062;-81
2022/12/17 20:08:00;;;;;;;;;;;;;;;-4.76;79.20;101188.40;99902;1289;110476;-75
2022/12/17 20:10:25;;;;;;;;;;;;;;;-4.75;79.15;101188.10;99822;1287;124388;-74
2022/12/17 20:12:50;;;;;;;;;;;;;;;-4.73;78.89;101189.72;99917;1289;96366;-76
2022/12/17 20:15:16;;;;;;;;;;;;;;;-4.74;78.80;101192.04;99938;1289;107677;-74
2022/12/17 20:17:41;;;;;;;;;;;;;;;-4.75;78.81;101190.66;99875;1289;124706;-74
2022/12/17 20:20:07;;;;;;;;;;;;;;;-4.76;78.95;101191.11;100017;1287;108914;-74
2022/12/17 20:22:33;;;;;;;;;;;;;;;-4.79;78.93;101192.52;99889;1289;124646;-72
2022/12/17 20:25:00;;;;;;;;;;;;;;;-4.82;79.26;101193.41;99809;1292;96470;-73
2022/12/17 20:27:26;;;;;;;;;;;;;;;-4.81;79.18;101199.39;99819;1289;124360;-73
2022/12/17 20:29:52;;;;;;;;;;;;;;;-4.80;78.98;101202.35;99880;1289;96337;-75
2022/12/17 20:32:19;;;;;;;;;;;;;;;-4.79;78.98;101203.55;99996;1288;110025;-73
2022/12/17 20:34:45;;;;;;;;;;;;;;;-4.77;79.12;101207.71;99776;1289;124333;-75
2022/12/17 20:37:11;;;;;;;;;;;;;;;-4.73;79.30;101213.15;99958;1290;96361;-75
2022/12/17 20:39:36;;;;;;;;;;;;;;;-4.68;79.39;101218.98;99879;1290;124228;-77
2022/12/17 20:42:02;;;;;;;;;;;;;;;-4.63;79.04;101216.33;100011;1289;97177;-78
2022/12/17 20:44:28;;;;;;;;;;;;;;;-4.59;79.13;101222.60;100005;1290;109852;-74
2022/12/17 20:46:53;;;;;;;;;;;;;;;-4.59;79.44;101228.91;99824;1288;124577;-79
2022/12/17 20:49:19;;;;;;;;;;;;;;;-4.60;79.09;101230.73;99885;1288;96558;-71
2022/12/17 20:51:44;;;;;;;;;;;;;;;-4.58;78.98;101231.84;99864;1289;124303;-92
2022/12/17 20:54:10;;;;;;;;;;;;;;;-4.54;79.28;101237.91;100027;1290;96507;-75
2022/12/17 20:56:36;;;;;;;;;;;;;;;-4.52;79.15;101239.36;99946;1290;109957;-77
2022/12/17 20:59:03;;;;;;;;;;;;;;;-4.53;78.85;101241.37;99758;1289;125958;-70
2022/12/17 21:01:29;;;;;;;;;;;;;;;-4.53;78.90;101243.05;99919;1288;99550;-81
2022/12/17 21:03:55;;;;;;;;;;;;;;;-4.56;79.03;101252.41;99799;1288;124150;-80
2022/12/17 21:06:22;;;;;;;;;;;;;;;-4.58;78.76;101256.41;99886;1288;96492;-82
2022/12/17 21:08:48;;;;;;;;;;;;;;;-4.61;78.81;101256.45;99848;1288;110932;-83
2022/12/17 21:11:15;;;;;;;;;;;;;;;-4.67;78.98;101262.65;99829;1286;124171;-84
2022/12/17 21:13:41;;;;;;;;;;;;;;;-4.73;78.83;101262.71;99874;1280;96544;-83
2022/12/17 21:16:09;;;;;;;;;;;;;;;-4.76;78.87;101263.09;99599;1285;124152;-76
2022/12/17 21:18:35;;;;;;;;;;;;;;;-4.76;79.05;101264.06;99855;1289;96503;-77
2022/12/17 21:21:04;;;;;;;;;;;;;;;-4.79;79.09;101261.76;99949;1289;110893;-81
2022/12/17 21:23:29;;;;;;;;;;;;;;;-4.81;78.98;101259.10;99879;1283;125160;-78
2022/12/17 21:26:02;;;;;;;;;;;;;;;-4.84;79.26;101260.00;99941;1291;96519;-82
2022/12/17 21:28:33;;;;;;;;;;;;;;;-4.86;79.14;101276.17;99912;1298;124272;-76
2022/12/17 21:30:59;;;;;;;;;;;;;;;-4.89;79.29;101284.54;99959;1289;96462;-77
2022/12/17 21:33:24;;;;;;;;;;;;;;;-4.90;79.00;101290.25;99811;1286;124351;-72
2022/12/17 21:35:50;;;;;;;;;;;;;;;-4.92;78.54;101287.61;99982;1289;107753;-80
2022/12/17 21:38:16;;;;;;;;;;;;;;;-4.95;79.16;101286.30;100795;1291;96475;-72
2022/12/17 21:40:41;;;;;;;;;;;;;;;-4.98;79.04;101283.95;99871;1291;124248;-71
2022/12/17 21:43:07;;;;;;;;;;;;;;;-5.03;78.78;101288.41;99873;1291;96478;-71
2022/12/17 21:45:37;;;;;;;;;;;;;;;-5.07;79.11;101292.67;100061;1296;124201;-71
2022/12/17 21:48:02;;;;;;;;;;;;;;;-5.10;79.18;101303.23;100100;1289;108050;-72
2022/12/17 21:50:39;;;;;;;;;;;;;;;-5.11;79.30;101303.01;100003;1290;96498;-72
2022/12/17 21:53:04;;;;;;;;;;;;;;;-5.11;79.32;101302.33;99899;1290;124147;-71
2022/12/17 21:55:30;;;;;;;;;;;;;;;-5.10;79.56;101296.45;100504;1290;96495;-69
2022/12/17 21:57:55;;;;;;;;;;;;;;;-5.10;79.23;101293.04;100217;1291;126029;-69
2022/12/17 22:00:21;;;;;;;;;;;;;;;-5.08;79.77;101295.31;100150;1290;107511;-69
2022/12/17 22:02:47;;;;;;;;;;;;;;;-5.04;79.74;101299.23;99899;1290;96844;-69
2022/12/17 22:05:12;;;;;;;;;;;;;;;-5.02;79.64;101304.95;100038;1289;124275;-69
2022/12/17 22:07:42;;;;;;;;;;;;;;;-4.99;79.69;101301.88;100172;1289;96584;-67
2022/12/17 22:10:10;;;;;;;;;;;;;;;-4.94;79.54;101296.86;100417;1283;124343;-69
2022/12/17 22:15:47;;;;;;;;;;;;;;;-4.92;79.67;101305.95;100229;1300;125020;-69
2022/12/17 22:18:13;;;;;;;;;;;;;;;-4.91;79.67;101312.44;99983;1302;107270;-70
2022/12/17 22:20:38;;;;;;;;;;;;;;;-4.91;79.42;101318.55;100038;1295;96484;-75
2022/12/17 22:23:04;;;;;;;;;;;;;;;-4.90;79.34;101321.48;99544;1294;125926;-74
2022/12/17 22:25:30;;;;;;;;;;;;;;;-4.90;79.22;101319.61;99626;1293;108519;-73
2022/12/17 22:27:56;;;;;;;;;;;;;;;-4.91;79.32;101321.07;100368;1296;124862;-72
2022/12/17 22:33:06;;;;;;;;;;;;;;;-4.91;79.20;101328.69;99539;1288;97316;-70
2022/12/17 22:35:51;;;;;;;;;;;;;;;-4.91;79.46;101342.11;99619;1288;110312;-69
2022/12/17 22:38:37;;;;;;;;;;;;;;;-4.89;79.49;101349.85;99526;1297;107074;-71
2022/12/17 22:44:26;;;;;;;;;;;;;;;-4.78;79.69;101353.90;99527;1286;107341;-72
2022/12/17 22:47:11;;;;;;;;;;;;;;;-4.76;79.47;101352.48;99450;1296;124661;-70
2022/12/17 22:49:37;;;;;;;;;;;;;;;-4.74;79.49;101358.16;99584;1290;110178;-74
2022/12/17 22:52:03;;;;;;;;;;;;;;;-4.73;79.46;101368.04;99530;1290;124468;-78
2022/12/17 22:54:29;;;;;;;;;;;;;;;-4.73;79.25;101378.92;100080;1293;96441;-78
2022/12/17 22:56:55;;;;;;;;;;;;;;;-4.73;79.57;101377.23;99980;1283;107764;-73
2022/12/17 22:59:40;;;;;;;;;;;;;;;-4.72;79.22;101379.98;99863;1289;124019;-75
2022/12/17 23:02:07;;;;;;;;;;;;;;;-4.72;79.48;101380.98;99923;1283;109664;-72
2022/12/17 23:04:33;;;;;;;;;;;;;;;-4.72;79.31;101386.94;99859;1297;126160;-72
2022/12/17 23:06:59;;;;;;;;;;;;;;;-4.74;78.91;101383.78;100080;1289;96422;-74
2022/12/17 23:09:25;;;;;;;;;;;;;;;-4.78;79.14;101381.41;100065;1296;108177;-72
2022/12/17 23:11:51;;;;;;;;;;;;;;;-4.77;79.30;101379.77;100085;1281;124828;-73
2022/12/17 23:14:17;;;;;;;;;;;;;;;-4.76;79.11;101379.31;100088;1291;109253;-74
2022/12/17 23:16:42;;;;;;;;;;;;;;;-4.76;79.41;101378.94;99801;1289;127267;-80
2022/12/17 23:19:08;;;;;;;;;;;;;;;-4.75;79.37;101374.25;99784;1286;96606;-74
2022/12/17 23:21:33;;;;;;;;;;;;;;;-4.72;79.15;101370.83;99883;1294;126829;-70
2022/12/17 23:23:59;;;;;;;;;;;;;;;-4.68;79.29;101366.40;99959;1289;96479;-72
2022/12/17 23:26:25;;;;;;;;;;;;;;;-4.66;79.12;101362.64;100046;1290;109793;-75
2022/12/17 23:28:56;;;;;;;;;;;;;;;-4.67;78.76;101364.45;99877;1295;124526;-68
2022/12/17 23:31:21;;;;;;;;;;;;;;;-4.68;79.01;101366.08;100734;1283;96215;-70
2022/12/17 23:33:47;;;;;;;;;;;;;;;-4.71;78.70;101374.10;99873;1291;124565;-70
2022/12/17 23:36:13;;;;;;;;;;;;;;;-4.73;78.78;101370.63;99024;1286;1002717;-69
2022/12/17 23:38:38;;;;;;;;;;;;;;;-4.75;78.51;101377.48;99989;1290;108940;-70
2022/12/17 23:41:06;;;;;;;;;;;;;;;-4.78;78.69;101378.84;99921;1289;124432;-70
2022/12/17 23:43:31;;;;;;;;;;;;;;;-4.81;78.83;101386.71;99980;1291;96498;-68
2022/12/17 23:45:58;;;;;;;;;;;;;;;-4.80;79.24;101386.21;99896;1289;124252;-70
2022/12/17 23:48:24;;;;;;;;;;;;;;;-4.80;79.09;101393.20;99944;1283;96475;-71
2022/12/17 23:50:49;;;;;;;;;;;;;;;-4.80;78.98;101397.08;99954;1290;111122;-72
2022/12/17 23:53:15;;;;;;;;;;;;;;;-4.85;79.11;101403.78;99899;1288;124507;-79
2022/12/17 23:55:40;;;;;;;;;;;;;;;-4.88;79.07;101410.43;99996;1285;96504;-80
2022/12/17 23:58:06;;;;;;;;;;;;;;;-4.89;79.33;101414.12;99783;1290;124390;-81
